This is the latest recevied weather packets stored in our database for station/object KC0OOO-WX. If no packets are shown the sender has not sent any weather packets the latest 10 day(s).
| Time | Temp. | Humidity | Pressure | Rain* | Wind** | Luminosity | Snow |
|---|---|---|---|---|---|---|---|
| 1777692434 | 4.44° C | 69% | 1022.4 hPa | 0 mm | - | - | - |
| 1777691834 | 5° C | 69% | 1022.4 hPa | 0 mm | - | - | - |
| 1777691204 | 5° C | 69% | 1022.4 hPa | 0 mm | - | - | - |
| 1777690612 | 5° C | 68% | 1022.4 hPa | 0 mm | - | - | - |
| 1777690004 | 5° C | 68% | 1022.4 hPa | 0 mm | - | - | - |
| 1777689404 | 5° C | 68% | 1022.4 hPa | 0 mm | - | - | - |
| 1777688804 | 5° C | 70% | 1022.4 hPa | 0 mm | - | - | - |
| 1777688174 | 5° C | 71% | 1022.4 hPa | 0 mm | - | - | - |
| 1777687574 | 5° C | 71% | 1022.4 hPa | 0 mm | - | - | - |
| 1777686974 | 5° C | 72% | 1022.4 hPa | 0 mm | - | - | - |
| 1777686374 | 5° C | 73% | 1022 hPa | 0 mm | - | - | - |
| 1777685744 | 5° C | 74% | 1022 hPa | 0 mm | - | - | - |
| 1777685143 | 5° C | 74% | 1022 hPa | 0 mm | - | - | - |
| 1777684543 | 5° C | 74% | 1022 hPa | 0 mm | - | - | - |
| 1777683913 | 5° C | 72% | 1021.7 hPa | 0 mm | - | - | - |
| 1777683313 | 5.56° C | 71% | 1021.7 hPa | 0 mm | - | - | - |
| 1777682714 | 6.11° C | 68% | 1021.3 hPa | 0 mm | - | - | - |
| 1777682113 | 6.11° C | 64% | 1021.3 hPa | 0 mm | - | - | - |
| 1777681513 | 6.11° C | 61% | 1020.7 hPa | 0 mm | - | - | - |
| 1777680913 | 6.67° C | 60% | 1020.7 hPa | 0 mm | - | - | - |
| 1777680313 | 7.22° C | 58% | 1020.7 hPa | 0 mm | - | - | - |
| 1777679713 | 7.78° C | 55% | 1019.6 hPa | 0 mm | - | - | - |
| 1777679113 | 8.89° C | 53% | 1019.3 hPa | 0 mm | - | - | - |
| 1777678513 | 10° C | 48% | 1019.3 hPa | 0 mm | - | - | - |
| 1777677913 | 10.56° C | 46% | 1019 hPa | 0 mm | - | - | - |
* Rain latest hour (hover to see other rain measurements)
** Current wind speed in m/s (hover to see current wind gust speed)